Aviation Digital Data Service (ADDS)

Output produced by METARs form (0219 UTC 16 January 2019)
found at http://www.aviationweather.gov/metar/data/
 
TAF SKBQ 152300Z 1600/1624 01015KT 9999 FEW020 
     BECMG 1601/1603 VRB02KT CAVOK 
     TEMPO 1619/1623 36020KT TX32/1618Z TN23/1611Z
       
TAF SKBO 152300Z 1600/1624 12008KT 9999 SCT023 
     BECMG 1601/1603 VRB02KT 
     PROB40 
     TEMPO 1603/1606 7000 VCSH BKN017 
     TEMPO 1619/1623 09007KT SCT017TCU TX21/1619Z TN09/1611Z
       
TAF SKBG 152300Z 1600/1624 32006KT 9999 SCT010 
     BECMG 1601/1603 VRB02KT 
     PROB40 
     TEMPO 1603/1606 7000 DZ SCT015TCU BKN080 
     TEMPO 1619/1623 BKN020 TX26/1618Z TN17/1611Z
       
TAF SKCL 152300Z 1600/1624 31012KT 9999 SCT030 
     BECMG 1601/1603 VRB02KT 
     TEMPO 1603/1606 VCSH SCT017 BKN100 
     PROB30 
     TEMPO 1606/1608 8000 DZ 
     TEMPO 1609/1613 7000 VCFG 
     TEMPO 1619/1623 SCT020TCU TX31/1619Z TN19/1611Z
       
TAF SKCG 152300Z 1600/1624 05008KT 9999 FEW020 
     BECMG 1601/1603 02010KT CAVOK 
     TEMPO 1619/1623 36020KT FEW020 TX32/1618Z TN23/1611Z
       
TAF SKCC 152300Z 1600/1624 34009KT 9999 SCT018 
     BECMG 1601/1603 VRB02KT 
     PROB40 
     TEMPO 1603/1606 7000 SCT015 BKN070 
     TEMPO 1619/1623 SCT017TCU TX30/1618Z TN21/1611Z
       
TAF SKLT 152300Z 1600/1624 32004KT 9999 SCT017 BKN100 
     BECMG 1601/1603 00000KT 
     TEMPO 1603/1606 6000 RA SCT017CB BKN080 
     TEMPO 1609/1613 8000 DZ 
     TEMPO 1619/1623 09007KT DZ SCT017CB TX32/1618Z TN22/1611Z
       
TAF SKRG 152300Z 1600/1624 06010KT 9999 SCT020TCU 
     BECMG 1601/1603 VRB02KT 
     PROB40 
     TEMPO 1604/1608 8000 DZRA 
     TEMPO 1609/1613 5000 BCFG DZ BKN010 
     TEMPO 1619/1623 09007KT DZ SCT017TCU TX22/1619Z TN12/1611Z
       
TAF SKPE 152300Z 1600/1624 25004KT 9999 FEW016 SCT080 
     BECMG 1601/1603 VRB02KT 
     PROB40 
     TEMPO 1605/1608 8000 DZRA 
     TEMPO 1609/1613 7000 VCFG 
     TEMPO 1619/1623 09007KT SCT017TCU TX27/1619Z TN18/1611Z
       
TAF SKSP 152300Z 1600/1624 04014KT 9999 FEW018 SCT200 
     PROB40 
     TEMPO 1605/1611 8000 SHRA SCT015TCU TX31/1619Z TN26/1611Z